createdAt,value
2022-09-27T00:00:11.709Z,253.60
2022-09-27T00:01:11.775Z,252.90
2022-09-27T00:02:11.794Z,264.80
2022-09-27T00:03:11.789Z,239.20
2022-09-27T00:04:11.675Z,255.90
2022-09-27T00:05:11.662Z,269.30
2022-09-27T00:06:11.642Z,258.90
2022-09-27T00:07:11.673Z,267.70
2022-09-27T00:08:11.621Z,266.30
2022-09-27T00:09:11.612Z,254.00
2022-09-27T00:10:11.605Z,253.40
2022-09-27T00:11:11.580Z,258.50
2022-09-27T00:12:11.723Z,252.50
2022-09-27T00:13:11.558Z,248.60
2022-09-27T00:14:11.543Z,241.40
2022-09-27T00:15:11.523Z,231.00
2022-09-27T00:16:11.572Z,223.30
2022-09-27T00:17:11.544Z,236.50
2022-09-27T00:18:11.480Z,226.10
2022-09-27T00:19:11.473Z,225.00
2022-09-27T00:20:11.476Z,225.30
2022-09-27T00:21:11.465Z,223.10
2022-09-27T00:22:11.499Z,234.10
2022-09-27T00:23:11.435Z,223.30
2022-09-27T00:24:11.449Z,224.20
2022-09-27T00:25:11.429Z,233.00
2022-09-27T00:26:11.425Z,232.50
2022-09-27T00:27:11.457Z,229.60
2022-09-27T00:28:11.385Z,232.40
2022-09-27T00:29:11.382Z,229.80
2022-09-27T00:30:11.352Z,224.00
2022-09-27T00:31:11.398Z,236.10
2022-09-27T00:32:11.397Z,233.30
2022-09-27T00:33:11.340Z,231.10
2022-09-27T00:34:11.326Z,238.60
2022-09-27T00:35:11.302Z,224.30
2022-09-27T00:36:11.305Z,243.30
2022-09-27T00:37:11.336Z,231.30
2022-09-27T00:38:11.281Z,243.80
2022-09-27T00:39:11.294Z,227.10
2022-09-27T00:40:13.175Z,246.30
2022-09-27T00:41:11.302Z,244.40
2022-09-27T00:42:11.273Z,244.90
2022-09-27T00:43:11.217Z,233.00
2022-09-27T00:44:11.213Z,242.70
2022-09-27T00:45:11.181Z,251.00
2022-09-27T00:46:11.249Z,245.20
2022-09-27T00:47:11.218Z,244.90
2022-09-27T00:48:11.156Z,249.60
2022-09-27T00:49:11.141Z,247.10
2022-09-27T00:50:11.131Z,240.50
2022-09-27T00:51:11.126Z,242.80
2022-09-27T00:52:11.156Z,240.40
2022-09-27T00:53:11.102Z,248.90
2022-09-27T00:54:11.107Z,239.50
2022-09-27T00:55:11.084Z,249.70
2022-09-27T00:56:11.093Z,242.80
2022-09-27T00:57:11.107Z,253.70
2022-09-27T00:58:11.045Z,248.90
2022-09-27T00:59:11.140Z,248.80
2022-09-27T01:00:11.028Z,250.60
2022-09-27T01:01:11.051Z,246.70
2022-09-27T01:02:11.078Z,243.30
2022-09-27T01:03:10.981Z,254.70
2022-09-27T01:04:10.983Z,241.90
2022-09-27T01:05:10.959Z,241.60
2022-09-27T01:06:10.978Z,245.50
2022-09-27T01:07:10.996Z,245.10
2022-09-27T01:08:10.939Z,246.20
2022-09-27T01:09:11.072Z,251.30
2022-09-27T01:10:10.920Z,248.20
2022-09-27T01:11:10.901Z,246.10
2022-09-27T01:12:10.930Z,250.90
2022-09-27T01:13:10.883Z,253.00
2022-09-27T01:14:10.871Z,256.20
2022-09-27T01:15:10.868Z,245.70
2022-09-27T01:16:10.879Z,250.70
2022-09-27T01:17:10.874Z,248.20
2022-09-27T01:18:10.813Z,242.40
2022-09-27T01:19:10.845Z,258.30
2022-09-27T01:20:10.781Z,251.80
2022-09-27T01:21:10.777Z,252.30
2022-09-27T01:22:10.802Z,249.60
2022-09-27T01:23:10.764Z,251.40
2022-09-27T01:24:10.783Z,248.20
2022-09-27T01:25:10.733Z,245.90
2022-09-27T01:26:10.741Z,250.70
2022-09-27T01:27:10.768Z,249.30
2022-09-27T01:28:10.697Z,252.50
2022-09-27T01:29:10.759Z,241.50
2022-09-27T01:30:10.676Z,244.90
2022-09-27T01:31:10.723Z,249.60
2022-09-27T01:32:10.717Z,243.80
2022-09-27T01:33:10.669Z,235.00
2022-09-27T01:34:10.628Z,234.60
2022-09-27T01:35:10.628Z,241.20
2022-09-27T01:36:10.620Z,240.50
2022-09-27T01:37:10.660Z,247.80
2022-09-27T01:38:10.605Z,244.70
2022-09-27T01:39:10.623Z,235.80
2022-09-27T01:40:10.584Z,249.10
2022-09-27T01:41:10.569Z,246.00
2022-09-27T01:42:12.949Z,245.70
2022-09-27T01:43:10.540Z,248.20
2022-09-27T01:44:10.526Z,238.10
2022-09-27T01:45:10.508Z,247.40
2022-09-27T01:46:10.560Z,245.40
2022-09-27T01:47:10.530Z,260.10
2022-09-27T01:48:10.478Z,250.50
2022-09-27T01:49:10.486Z,250.00
2022-09-27T01:50:10.441Z,250.90
2022-09-27T01:51:10.438Z,250.30
2022-09-27T01:52:10.468Z,215.30
2022-09-27T01:53:10.438Z,202.40
2022-09-27T01:54:10.394Z,223.10
2022-09-27T01:55:10.403Z,221.80
2022-09-27T01:56:10.398Z,218.40
2022-09-27T01:57:10.431Z,221.50
2022-09-27T01:58:10.380Z,208.60
2022-09-27T01:59:10.416Z,226.00
2022-09-27T02:00:10.331Z,252.10
2022-09-27T02:01:10.391Z,212.90
2022-09-27T02:02:10.437Z,207.90
2022-09-27T02:03:10.330Z,213.20
2022-09-27T02:04:10.297Z,208.20
2022-09-27T02:05:10.302Z,218.40
2022-09-27T02:06:12.549Z,207.10
2022-09-27T02:07:10.320Z,196.90
2022-09-27T02:08:10.240Z,209.30
2022-09-27T02:09:10.306Z,221.80
2022-09-27T02:10:10.244Z,218.20
2022-09-27T02:11:10.225Z,201.40
2022-09-27T02:12:10.249Z,199.20
2022-09-27T02:13:10.196Z,215.40
2022-09-27T02:14:10.198Z,217.40
2022-09-27T02:15:10.169Z,197.40
2022-09-27T02:16:10.191Z,202.60
2022-09-27T02:17:10.194Z,185.00
2022-09-27T02:18:10.140Z,187.00
2022-09-27T02:19:10.218Z,178.30
2022-09-27T02:20:10.103Z,182.20
2022-09-27T02:21:10.088Z,187.80
2022-09-27T02:22:10.120Z,187.20
2022-09-27T02:23:10.084Z,177.70
2022-09-27T02:24:10.083Z,183.60
2022-09-27T02:25:10.060Z,173.50
2022-09-27T02:26:10.057Z,179.80
2022-09-27T02:27:10.096Z,187.90
2022-09-27T02:28:10.040Z,178.10
2022-09-27T02:29:10.042Z,167.80
2022-09-27T02:30:09.991Z,187.90
2022-09-27T02:31:10.113Z,177.50
2022-09-27T02:32:10.031Z,175.90
2022-09-27T02:33:09.978Z,175.70
2022-09-27T02:34:09.963Z,173.70
2022-09-27T02:35:09.963Z,199.50
2022-09-27T02:36:09.944Z,197.50
2022-09-27T02:37:09.976Z,199.50
2022-09-27T02:38:09.925Z,193.50
2022-09-27T02:39:09.895Z,193.50
2022-09-27T02:40:09.896Z,206.40
2022-09-27T02:41:09.888Z,200.00
2022-09-27T02:42:09.913Z,203.40
2022-09-27T02:43:09.858Z,179.90
2022-09-27T02:44:09.848Z,195.00
2022-09-27T02:45:09.831Z,189.80
2022-09-27T02:46:09.888Z,213.10
2022-09-27T02:47:09.852Z,155.30
2022-09-27T02:48:09.795Z,160.50
2022-09-27T02:49:09.799Z,158.50
2022-09-27T02:50:09.770Z,164.70
2022-09-27T02:51:09.756Z,201.40
2022-09-27T02:52:09.785Z,183.10
2022-09-27T02:53:09.742Z,194.00
2022-09-27T02:54:09.759Z,180.20
2022-09-27T02:55:09.721Z,179.80
2022-09-27T02:56:09.718Z,184.20
2022-09-27T02:57:09.763Z,180.30
2022-09-27T02:58:09.693Z,165.40
2022-09-27T02:59:09.734Z,159.50
2022-09-27T03:00:09.661Z,159.10
2022-09-27T03:01:09.693Z,164.00
2022-09-27T03:02:13.376Z,184.40
2022-09-27T03:03:09.703Z,201.30
2022-09-27T03:04:09.614Z,171.40
2022-09-27T03:05:09.620Z,173.20
2022-09-27T03:06:09.593Z,217.20
2022-09-27T03:07:09.633Z,213.80
2022-09-27T03:08:09.580Z,239.60
2022-09-27T03:09:09.561Z,262.20
2022-09-27T03:10:09.554Z,245.50
2022-09-27T03:11:09.533Z,249.80
2022-09-27T03:12:09.573Z,261.40
2022-09-27T03:13:09.525Z,246.90
2022-09-27T03:14:09.601Z,250.40
2022-09-27T03:15:09.497Z,272.20
2022-09-27T03:16:09.477Z,266.90
2022-09-27T03:17:09.648Z,260.90
2022-09-27T03:18:09.454Z,244.90
2022-09-27T03:19:09.457Z,278.80
2022-09-27T03:20:09.416Z,227.30
2022-09-27T03:21:09.418Z,258.10
2022-09-27T03:22:09.452Z,238.30
2022-09-27T03:23:09.398Z,297.10
2022-09-27T03:24:09.393Z,284.20
2022-09-27T03:25:09.383Z,274.70
2022-09-27T03:26:12.856Z,299.10
2022-09-27T03:27:09.421Z,274.50
2022-09-27T03:28:09.358Z,303.10
2022-09-27T03:29:09.350Z,292.00
2022-09-27T03:30:09.338Z,281.40
2022-09-27T03:31:09.371Z,244.80
2022-09-27T03:32:09.347Z,245.90
2022-09-27T03:33:09.308Z,195.90
2022-09-27T03:34:09.280Z,212.50
2022-09-27T03:35:09.286Z,182.10
2022-09-27T03:36:09.238Z,191.00
2022-09-27T03:37:09.296Z,198.80
2022-09-27T03:38:09.233Z,180.30
2022-09-27T03:39:09.251Z,174.70
2022-09-27T03:40:09.230Z,183.20
2022-09-27T03:41:09.202Z,168.60
2022-09-27T03:42:09.243Z,154.70
2022-09-27T03:43:09.177Z,176.00
2022-09-27T03:44:09.178Z,168.80
2022-09-27T03:45:09.154Z,145.60
2022-09-27T03:46:09.192Z,151.60
2022-09-27T03:47:09.179Z,176.50
2022-09-27T03:48:09.112Z,148.30
2022-09-27T03:49:09.186Z,141.00
2022-09-27T03:50:09.094Z,140.00
2022-09-27T03:51:09.091Z,133.70
2022-09-27T03:52:09.130Z,142.20
2022-09-27T03:53:09.060Z,142.10
2022-09-27T03:54:09.060Z,138.80
2022-09-27T03:55:09.038Z,139.70
2022-09-27T03:56:09.031Z,156.60
2022-09-27T03:57:09.074Z,168.30
2022-09-27T03:58:09.009Z,179.40
2022-09-27T03:59:09.004Z,159.30
2022-09-27T04:00:09.065Z,160.00
2022-09-27T04:01:09.015Z,169.20
2022-09-27T04:02:09.020Z,153.50
2022-09-27T04:03:08.964Z,153.90
2022-09-27T04:04:11.191Z,153.50
2022-09-27T04:05:08.946Z,155.00
2022-09-27T04:06:08.923Z,160.60
2022-09-27T04:07:08.964Z,182.30
2022-09-27T04:08:08.896Z,190.00
2022-09-27T04:09:08.945Z,202.60
2022-09-27T04:10:08.876Z,191.30
2022-09-27T04:11:08.863Z,178.50
2022-09-27T04:12:08.888Z,179.40
2022-09-27T04:13:08.885Z,167.10
2022-09-27T04:14:08.847Z,149.40
2022-09-27T04:15:08.830Z,146.70
2022-09-27T04:16:08.821Z,148.80
2022-09-27T04:17:08.909Z,160.60
2022-09-27T04:18:08.782Z,158.00
2022-09-27T04:19:08.873Z,160.30
2022-09-27T04:20:08.761Z,161.10
2022-09-27T04:21:08.773Z,146.00
2022-09-27T04:22:08.760Z,155.00
2022-09-27T04:23:08.719Z,135.80
2022-09-27T04:24:08.738Z,145.40
2022-09-27T04:25:08.706Z,173.80
2022-09-27T04:26:08.705Z,179.90
2022-09-27T04:27:08.741Z,157.40
2022-09-27T04:28:08.678Z,142.70
2022-09-27T04:29:08.718Z,146.80
2022-09-27T04:30:08.656Z,173.90
2022-09-27T04:31:08.715Z,166.70
2022-09-27T04:32:08.667Z,155.50
2022-09-27T04:33:08.635Z,155.10
2022-09-27T04:34:08.608Z,166.40
2022-09-27T04:35:08.596Z,161.70
2022-09-27T04:36:08.585Z,153.40
2022-09-27T04:37:08.624Z,186.40
2022-09-27T04:38:08.560Z,192.40
2022-09-27T04:39:08.640Z,196.80
2022-09-27T04:40:08.540Z,202.60
2022-09-27T04:41:08.525Z,195.00
2022-09-27T04:42:08.551Z,202.30
2022-09-27T04:43:08.500Z,186.20
2022-09-27T04:44:08.503Z,172.60
2022-09-27T04:45:08.500Z,196.60
2022-09-27T04:46:08.564Z,204.90
2022-09-27T04:47:08.540Z,207.70
2022-09-27T04:48:08.447Z,205.30
2022-09-27T04:49:08.536Z,231.70
2022-09-27T04:50:08.418Z,231.90
2022-09-27T04:51:08.434Z,230.10
2022-09-27T04:52:08.427Z,244.10
2022-09-27T04:53:08.370Z,261.60
2022-09-27T04:54:08.372Z,274.80
2022-09-27T04:55:08.364Z,260.50
2022-09-27T04:56:08.355Z,242.50
2022-09-27T04:57:08.391Z,253.30
2022-09-27T04:58:08.336Z,244.00
2022-09-27T04:59:09.894Z,272.00
2022-09-27T05:00:08.327Z,268.20
2022-09-27T05:01:08.331Z,282.90
2022-09-27T05:02:08.386Z,267.30
2022-09-27T05:03:08.282Z,271.70
2022-09-27T05:04:08.253Z,277.90
2022-09-27T05:05:08.265Z,275.30
2022-09-27T05:06:08.234Z,253.60
2022-09-27T05:07:08.299Z,234.00
2022-09-27T05:08:08.223Z,214.20
2022-09-27T05:09:08.253Z,195.10
2022-09-27T05:10:08.232Z,172.90
2022-09-27T05:11:08.184Z,164.20
2022-09-27T05:12:08.202Z,156.60
2022-09-27T05:13:08.174Z,153.70
2022-09-27T05:14:08.174Z,156.90
2022-09-27T05:15:08.143Z,151.50
2022-09-27T05:16:08.155Z,152.40
2022-09-27T05:17:08.208Z,148.50
2022-09-27T05:18:08.100Z,150.10
2022-09-27T05:19:08.093Z,158.90
2022-09-27T05:20:08.077Z,149.00
2022-09-27T05:21:08.082Z,158.90
2022-09-27T05:22:08.093Z,176.50
2022-09-27T05:23:08.036Z,199.70
2022-09-27T05:24:08.022Z,238.40
2022-09-27T05:25:08.011Z,252.70
2022-09-27T05:26:08.022Z,257.90
2022-09-27T05:27:08.003Z,285.20
2022-09-27T05:28:08.056Z,295.90
2022-09-27T05:29:08.062Z,306.60
2022-09-27T05:30:07.993Z,312.60
2022-09-27T05:31:07.977Z,311.60
2022-09-27T05:32:07.971Z,315.90
2022-09-27T05:33:07.999Z,306.10
2022-09-27T05:34:07.925Z,302.60
2022-09-27T05:35:07.912Z,279.70
2022-09-27T05:36:07.921Z,271.70
2022-09-27T05:37:07.909Z,259.30
2022-09-27T05:38:07.938Z,245.70
2022-09-27T05:39:07.878Z,250.80
2022-09-27T05:40:22.380Z,244.90
2022-09-27T05:41:08.911Z,241.80
2022-09-27T05:42:07.837Z,235.50
2022-09-27T05:43:07.868Z,228.10
2022-09-27T05:44:07.827Z,223.60
2022-09-27T05:45:07.810Z,213.60
2022-09-27T05:46:07.847Z,221.80
2022-09-27T05:47:07.795Z,207.70
2022-09-27T05:48:07.829Z,202.70
2022-09-27T05:49:07.751Z,201.90
2022-09-27T05:50:07.746Z,184.60
2022-09-27T05:51:07.745Z,176.90
2022-09-27T05:52:10.073Z,179.30
2022-09-27T05:53:07.743Z,183.40
2022-09-27T05:54:07.693Z,190.00
2022-09-27T05:55:07.715Z,194.30
2022-09-27T05:56:07.693Z,179.60
2022-09-27T05:57:07.680Z,179.60
2022-09-27T05:58:07.690Z,173.10
2022-09-27T05:59:07.652Z,181.30
2022-09-27T06:00:07.666Z,180.90
2022-09-27T06:01:07.614Z,185.40
2022-09-27T06:02:07.714Z,195.50
2022-09-27T06:03:07.696Z,203.80
2022-09-27T06:04:07.596Z,234.00
2022-09-27T06:05:07.576Z,252.80
2022-09-27T06:06:07.576Z,263.90
2022-09-27T06:07:07.555Z,283.80
2022-09-27T06:08:07.605Z,298.30
2022-09-27T06:09:07.534Z,293.90
2022-09-27T06:10:07.530Z,307.40
2022-09-27T06:11:07.513Z,319.50
2022-09-27T06:12:07.497Z,324.00
2022-09-27T06:13:07.544Z,315.70
2022-09-27T06:14:07.481Z,309.00
2022-09-27T06:15:07.450Z,324.00
2022-09-27T06:16:07.457Z,331.00
2022-09-27T06:17:07.435Z,331.20
2022-09-27T06:18:07.469Z,324.40
2022-09-27T06:19:07.420Z,323.50
2022-09-27T06:20:07.414Z,307.20
2022-09-27T06:21:07.389Z,298.50
2022-09-27T06:22:07.437Z,287.80
2022-09-27T06:23:07.361Z,291.60
2022-09-27T06:24:07.347Z,272.70
2022-09-27T06:25:07.336Z,255.10
2022-09-27T06:26:07.337Z,262.10
2022-09-27T06:27:07.359Z,265.10
2022-09-27T06:28:07.329Z,272.60
2022-09-27T06:29:07.317Z,269.70
2022-09-27T06:30:07.294Z,292.80
2022-09-27T06:31:07.295Z,298.10
2022-09-27T06:32:07.306Z,296.40
2022-09-27T06:33:07.266Z,301.40
2022-09-27T06:34:07.271Z,292.00
2022-09-27T06:35:07.231Z,279.10
2022-09-27T06:36:07.347Z,274.40
2022-09-27T06:37:07.289Z,268.50
2022-09-27T06:38:07.229Z,263.90
2022-09-27T06:39:07.195Z,266.40
2022-09-27T06:40:07.214Z,263.30
2022-09-27T06:41:07.200Z,257.30
2022-09-27T06:42:07.153Z,254.50
2022-09-27T06:43:07.185Z,253.20
2022-09-27T06:44:07.142Z,249.30
2022-09-27T06:45:07.106Z,254.80
2022-09-27T06:46:07.191Z,251.40
2022-09-27T06:47:07.093Z,258.40
2022-09-27T06:48:07.131Z,254.10
2022-09-27T06:49:07.072Z,262.00
2022-09-27T06:50:07.083Z,263.30
2022-09-27T06:51:07.052Z,262.80
2022-09-27T06:52:07.065Z,272.50
2022-09-27T06:53:07.099Z,270.40
2022-09-27T06:54:07.076Z,266.30
2022-09-27T06:55:07.015Z,265.70
2022-09-27T06:56:07.023Z,265.20
2022-09-27T06:57:07.001Z,267.20
2022-09-27T06:58:07.037Z,266.70
2022-09-27T06:59:06.974Z,258.10
2022-09-27T07:00:06.962Z,249.20
2022-09-27T07:01:07.035Z,254.90
2022-09-27T07:02:07.038Z,270.30
2022-09-27T07:03:06.966Z,285.80
2022-09-27T07:04:06.933Z,291.70
2022-09-27T07:05:06.908Z,287.40
2022-09-27T07:06:06.898Z,291.30
2022-09-27T07:07:06.972Z,292.20
2022-09-27T07:08:06.915Z,289.80
2022-09-27T07:09:06.864Z,292.40
2022-09-27T07:10:09.891Z,287.50
2022-09-27T07:11:06.843Z,284.00
2022-09-27T07:12:06.838Z,285.40
2022-09-27T07:13:06.835Z,286.40
2022-09-27T07:14:06.793Z,287.70
2022-09-27T07:15:06.775Z,282.90
2022-09-27T07:16:06.798Z,285.40
2022-09-27T07:17:06.789Z,281.90
2022-09-27T07:18:06.801Z,294.00
2022-09-27T07:19:06.738Z,281.80
2022-09-27T07:20:06.754Z,292.90
2022-09-27T07:21:06.711Z,290.30
2022-09-27T07:22:06.713Z,290.00
2022-09-27T07:23:06.750Z,298.70
2022-09-27T07:24:06.673Z,291.40
2022-09-27T07:25:06.661Z,294.00
2022-09-27T07:26:06.682Z,289.30
2022-09-27T07:27:06.641Z,282.10
2022-09-27T07:28:06.686Z,298.90
2022-09-27T07:29:06.640Z,290.90
2022-09-27T07:30:06.616Z,298.80
2022-09-27T07:31:06.658Z,281.40
2022-09-27T07:32:06.575Z,290.20
2022-09-27T07:33:06.639Z,303.90
2022-09-27T07:34:06.596Z,307.10
2022-09-27T07:35:06.603Z,302.90
2022-09-27T07:36:06.558Z,308.80
2022-09-27T07:37:06.547Z,312.50
2022-09-27T07:38:06.608Z,326.50
2022-09-27T07:39:06.525Z,332.60
2022-09-27T07:40:06.520Z,337.40
2022-09-27T07:41:06.489Z,330.20
2022-09-27T07:42:06.478Z,315.90
2022-09-27T07:43:06.491Z,307.30
2022-09-27T07:44:06.474Z,315.60
2022-09-27T07:45:09.141Z,323.30
2022-09-27T07:46:06.482Z,325.00
2022-09-27T07:47:06.433Z,323.30
2022-09-27T07:48:06.466Z,329.50
2022-09-27T07:49:06.423Z,324.30
2022-09-27T07:50:06.409Z,311.30
2022-09-27T07:51:06.386Z,295.80
2022-09-27T07:52:06.371Z,283.50
2022-09-27T07:53:06.402Z,276.40
2022-09-27T07:54:08.738Z,260.40
2022-09-27T07:55:06.329Z,233.70
2022-09-27T07:56:06.368Z,208.30
2022-09-27T07:57:06.319Z,204.60
2022-09-27T07:58:06.359Z,207.60
2022-09-27T07:59:06.294Z,226.00
2022-09-27T08:00:06.284Z,218.90
2022-09-27T08:01:06.327Z,213.80
2022-09-27T08:02:06.270Z,151.40
2022-09-27T08:03:06.290Z,168.10
2022-09-27T08:04:06.232Z,124.40
2022-09-27T08:05:06.208Z,161.50
2022-09-27T08:06:06.218Z,127.00
2022-09-27T08:07:06.193Z,130.30
2022-09-27T08:08:06.240Z,267.10
2022-09-27T08:09:06.184Z,343.60
2022-09-27T08:10:06.184Z,61.90
2022-09-27T08:11:06.186Z,63.00
2022-09-27T08:12:06.139Z,614.90
2022-09-27T08:13:06.160Z,553.00
2022-09-27T08:14:06.121Z,515.10
2022-09-27T08:15:06.099Z,59.00
2022-09-27T08:16:06.157Z,395.10
2022-09-27T08:17:06.096Z,478.80
2022-09-27T08:18:06.135Z,144.50
2022-09-27T08:19:06.067Z,496.50
2022-09-27T08:20:06.072Z,193.60
2022-09-27T08:21:06.030Z,532.20
2022-09-27T08:22:06.043Z,302.60
2022-09-27T08:23:06.136Z,65.30
2022-09-27T08:24:06.033Z,427.70
2022-09-27T08:25:06.012Z,336.20
2022-09-27T08:26:06.012Z,254.10
2022-09-27T08:27:10.743Z,300.90
2022-09-27T08:28:07.014Z,144.10
2022-09-27T08:29:05.959Z,349.30
2022-09-27T08:30:05.946Z,256.90
2022-09-27T08:31:05.928Z,344.50
2022-09-27T08:32:05.919Z,325.40
2022-09-27T08:33:05.941Z,370.90
2022-09-27T08:34:05.932Z,381.60
2022-09-27T08:35:05.881Z,242.90
2022-09-27T08:36:05.902Z,131.40
2022-09-27T08:37:05.864Z,31.90
2022-09-27T08:38:05.941Z,211.60
2022-09-27T08:39:05.841Z,109.40
2022-09-27T08:40:05.816Z,149.30
2022-09-27T08:41:05.815Z,115.60
2022-09-27T08:42:05.800Z,76.60
2022-09-27T08:43:05.826Z,58.10
2022-09-27T08:44:05.771Z,78.40
2022-09-27T08:45:05.771Z,77.70
2022-09-27T08:46:05.770Z,109.70
2022-09-27T08:47:05.805Z,112.20
2022-09-27T08:48:05.768Z,23.10
2022-09-27T08:49:05.718Z,105.20
2022-09-27T08:50:05.827Z,79.50
2022-09-27T08:51:05.700Z,33.40
2022-09-27T08:52:05.748Z,72.70
2022-09-27T08:53:05.684Z,50.80
2022-09-27T08:54:05.710Z,58.60
2022-09-27T08:55:05.667Z,31.90
2022-09-27T08:56:05.665Z,62.00
2022-09-27T08:57:05.669Z,57.50
2022-09-27T08:58:05.616Z,68.40
2022-09-27T08:59:05.624Z,52.00
2022-09-27T09:00:05.592Z,48.70
2022-09-27T09:01:05.654Z,48.70
2022-09-27T09:02:05.672Z,43.70
2022-09-27T09:03:05.571Z,49.20
2022-09-27T09:04:05.545Z,65.10
2022-09-27T09:05:05.528Z,76.10
2022-09-27T09:06:05.521Z,88.60
2022-09-27T09:07:05.521Z,93.80
2022-09-27T09:08:05.557Z,100.10
2022-09-27T09:09:05.491Z,99.20
2022-09-27T09:10:05.475Z,86.00
2022-09-27T09:11:05.458Z,93.20
2022-09-27T09:12:05.451Z,110.30
2022-09-27T09:13:05.496Z,93.30
2022-09-27T09:14:06.772Z,94.30
2022-09-27T09:15:05.434Z,106.70
2022-09-27T09:16:05.528Z,96.20
2022-09-27T09:17:05.405Z,60.10
2022-09-27T09:18:05.465Z,15.50
2022-09-27T09:19:05.379Z,86.00
2022-09-27T09:20:05.383Z,89.60
2022-09-27T09:21:05.353Z,93.50
2022-09-27T09:22:05.360Z,31.00
2022-09-27T09:23:05.390Z,82.70
2022-09-27T09:24:05.371Z,70.70
2022-09-27T09:25:05.321Z,81.30
2022-09-27T09:26:05.318Z,64.30
2022-09-27T09:27:05.300Z,46.90
2022-09-27T09:28:05.331Z,48.20
2022-09-27T09:29:05.288Z,50.20
2022-09-27T09:30:05.254Z,48.80
2022-09-27T09:31:05.267Z,14.20
2022-09-27T09:32:05.275Z,57.60
2022-09-27T09:33:05.272Z,66.50
2022-09-27T09:34:05.197Z,49.80
2022-09-27T09:35:05.186Z,20.40
2022-09-27T09:36:05.176Z,49.40
2022-09-27T09:37:05.177Z,38.70
2022-09-27T09:38:05.209Z,31.60
2022-09-27T09:39:05.173Z,59.80
2022-09-27T09:40:08.870Z,47.10
2022-09-27T09:41:05.155Z,52.30
2022-09-27T09:42:05.141Z,49.00
2022-09-27T09:43:05.188Z,50.90
2022-09-27T09:44:05.101Z,54.60
2022-09-27T09:45:05.089Z,28.90
2022-09-27T09:46:05.109Z,42.60
2022-09-27T09:47:05.076Z,54.80
2022-09-27T09:48:05.125Z,56.90
2022-09-27T09:49:05.059Z,48.20
2022-09-27T09:50:05.031Z,60.40
2022-09-27T09:51:05.015Z,38.00
2022-09-27T09:52:08.786Z,39.40
2022-09-27T09:53:05.042Z,39.50
2022-09-27T09:54:04.995Z,39.60
2022-09-27T09:55:05.029Z,45.80
2022-09-27T09:56:04.985Z,38.90
2022-09-27T09:57:04.975Z,33.00
2022-09-27T09:58:04.999Z,46.70
2022-09-27T09:59:04.944Z,47.20
2022-09-27T10:00:04.917Z,35.20
2022-09-27T10:01:04.968Z,51.30
2022-09-27T10:02:04.968Z,44.10
2022-09-27T10:03:04.936Z,47.40
2022-09-27T10:04:04.886Z,40.60
2022-09-27T10:05:07.865Z,45.30
2022-09-27T10:06:04.836Z,418.40
2022-09-27T10:07:04.854Z,392.50
2022-09-27T10:08:04.876Z,72.60
2022-09-27T10:09:04.858Z,369.50
2022-09-27T10:10:04.816Z,1999.90
2022-09-27T10:11:04.795Z,1999.90
2022-09-27T10:12:04.810Z,771.10
2022-09-27T10:13:04.833Z,1999.90
2022-09-27T10:14:04.778Z,965.50
2022-09-27T10:15:04.755Z,704.50
2022-09-27T10:16:04.756Z,1999.90
2022-09-27T10:17:04.729Z,850.00
2022-09-27T10:18:04.771Z,968.30
2022-09-27T10:19:04.841Z,1999.90
2022-09-27T10:20:04.694Z,1999.90
2022-09-27T10:21:04.693Z,961.80
2022-09-27T10:22:04.673Z,1999.90
2022-09-27T10:23:04.711Z,585.00
2022-09-27T10:24:04.659Z,1999.90
2022-09-27T10:25:04.652Z,1999.90
2022-09-27T10:26:04.633Z,1999.90
2022-09-27T10:27:04.628Z,308.00
2022-09-27T10:28:04.667Z,908.60
2022-09-27T10:29:04.602Z,888.00
2022-09-27T10:30:04.608Z,832.70
2022-09-27T10:31:04.581Z,1999.90
2022-09-27T10:32:04.563Z,795.50
2022-09-27T10:33:04.599Z,1999.90
2022-09-27T10:34:04.517Z,659.00
2022-09-27T10:35:04.536Z,1999.90
2022-09-27T10:36:04.506Z,1999.90
2022-09-27T10:37:04.503Z,1999.90
2022-09-27T10:38:04.559Z,1999.90
2022-09-27T10:39:04.492Z,1999.90
2022-09-27T10:40:04.471Z,1999.90
2022-09-27T10:41:04.462Z,1999.90
2022-09-27T10:42:04.462Z,1999.90
2022-09-27T10:43:04.494Z,1999.90
2022-09-27T10:44:04.440Z,1999.90
2022-09-27T10:45:04.417Z,1999.90
2022-09-27T10:46:04.445Z,1999.90
2022-09-27T10:47:04.388Z,1999.90
2022-09-27T10:48:04.443Z,1999.90
2022-09-27T10:49:04.382Z,1999.90
2022-09-27T10:50:04.357Z,1999.90
2022-09-27T10:51:04.345Z,1999.90
2022-09-27T10:52:04.347Z,1999.90
2022-09-27T10:53:04.385Z,1999.90
2022-09-27T10:54:04.363Z,1999.90
2022-09-27T10:55:04.326Z,1999.90
2022-09-27T10:56:04.305Z,1999.90
2022-09-27T10:57:04.295Z,1999.90
2022-09-27T10:58:04.318Z,1999.90
2022-09-27T10:59:04.266Z,1999.90
2022-09-27T11:00:04.265Z,1999.90
2022-09-27T11:01:04.295Z,1999.90
2022-09-27T11:02:04.245Z,1999.90
2022-09-27T11:03:04.275Z,1999.90
2022-09-27T11:04:04.189Z,1999.90
2022-09-27T11:05:04.214Z,1999.90
2022-09-27T11:06:04.175Z,973.90
2022-09-27T11:07:04.175Z,71.90
2022-09-27T11:08:04.237Z,56.10
2022-09-27T11:09:04.168Z,57.50
2022-09-27T11:10:04.142Z,96.90
2022-09-27T11:11:04.150Z,97.50
2022-09-27T11:12:04.116Z,34.30
2022-09-27T11:13:04.159Z,36.90
2022-09-27T11:14:04.095Z,22.50
2022-09-27T11:15:04.081Z,25.60
2022-09-27T11:16:04.133Z,25.10
2022-09-27T11:17:04.075Z,39.10
2022-09-27T11:18:04.078Z,52.40
2022-09-27T11:19:04.035Z,50.20
2022-09-27T11:20:04.013Z,54.00
2022-09-27T11:21:04.024Z,60.90
2022-09-27T11:22:04.007Z,52.40
2022-09-27T11:23:04.027Z,89.50
2022-09-27T11:24:03.974Z,124.60
2022-09-27T11:25:03.990Z,158.10
2022-09-27T11:26:03.952Z,173.80
2022-09-27T11:27:03.937Z,181.00
2022-09-27T11:28:03.981Z,183.70
2022-09-27T11:29:03.925Z,204.60
2022-09-27T11:30:03.911Z,178.60
2022-09-27T11:31:03.934Z,122.80
2022-09-27T11:32:03.939Z,94.80
2022-09-27T11:33:03.932Z,76.50
2022-09-27T11:34:03.855Z,72.70
2022-09-27T11:35:03.847Z,71.40
2022-09-27T11:36:03.827Z,61.70
2022-09-27T11:37:03.876Z,29.00
2022-09-27T11:38:03.817Z,35.40
2022-09-27T11:39:03.828Z,38.50
2022-09-27T11:40:03.833Z,29.60
2022-09-27T11:41:03.806Z,33.00
2022-09-27T11:42:03.833Z,27.50
2022-09-27T11:43:03.765Z,21.80
2022-09-27T11:44:03.744Z,17.30
2022-09-27T11:45:30.390Z,16.50
2022-09-27T11:46:19.164Z,18.70
2022-09-27T11:47:04.850Z,18.70
2022-09-27T11:48:03.828Z,18.20
2022-09-27T11:49:03.702Z,16.90
2022-09-27T11:50:03.686Z,17.90
2022-09-27T11:51:03.683Z,36.20
2022-09-27T11:52:03.709Z,32.20
2022-09-27T11:53:03.665Z,27.70
2022-09-27T11:54:03.651Z,43.30
2022-09-27T11:55:03.640Z,30.60
2022-09-27T11:56:03.619Z,32.10
2022-09-27T11:57:03.662Z,40.40
2022-09-27T11:58:03.610Z,30.10
2022-09-27T11:59:03.605Z,38.40
2022-09-27T12:00:03.579Z,52.00
2022-09-27T12:01:03.554Z,37.90
2022-09-27T12:02:03.706Z,34.60
2022-09-27T12:03:03.582Z,38.90
2022-09-27T12:04:03.531Z,41.40
2022-09-27T12:05:03.524Z,57.30
2022-09-27T12:06:07.320Z,64.20
2022-09-27T12:07:03.533Z,70.50
2022-09-27T12:08:03.476Z,102.50
2022-09-27T12:09:03.481Z,155.80
2022-09-27T12:10:03.461Z,203.10
2022-09-27T12:11:03.445Z,261.50
2022-09-27T12:12:03.484Z,305.40
2022-09-27T12:13:03.419Z,368.20
2022-09-27T12:14:03.418Z,331.20
2022-09-27T12:15:06.943Z,332.90
2022-09-27T12:16:03.417Z,355.30
2022-09-27T12:17:03.380Z,340.80
2022-09-27T12:18:03.400Z,321.70
2022-09-27T12:19:03.352Z,315.70
2022-09-27T12:20:03.334Z,283.80
2022-09-27T12:21:03.331Z,181.20
2022-09-27T12:22:03.338Z,99.70
2022-09-27T12:23:03.353Z,97.80
2022-09-27T12:24:03.329Z,107.80
2022-09-27T12:25:03.300Z,133.10
2022-09-27T12:26:03.259Z,187.40
2022-09-27T12:27:03.257Z,76.00
2022-09-27T12:28:03.289Z,171.40
2022-09-27T12:29:03.250Z,55.40
2022-09-27T12:30:03.232Z,40.70
2022-09-27T12:31:27.361Z,42.70